Crab Orchard, Kentucky
Current Conditions -  °F | °C
As of 5:15 PM on Friday 31 Oct 2014 (Local Time) from KI39 Reporting Station
Overcast Overcast  
Wind Chill: 28°   Ceiling: 900
Heat Index: 37°   Visibility: 10mi
Dew Point: 36°   Wind: 16mph
Humidity: 93%   Direction: 310°NW
Pressure: 29.94"   Gusts: 22mph
Location:  37.46°N, 84.51°W
Report Text: KI39 312115Z AUTO 31014G19KT 10SM OVC009 03/02 A2994 RMK AO2
Loading
Personal Weather Stations






























Interactive Weather Map
Tropical Storm Tracking
New forecast layout! Learn more

10-Day Weather Forecast

Advertisements
Track Severe Weather on mobile